createdAt,value
2019-04-14T00:01:36.966Z,4.40
2019-04-14T00:04:25.304Z,4.50
2019-04-14T00:06:54.812Z,4.50
2019-04-14T00:09:25.179Z,4.50
2019-04-14T00:11:54.817Z,4.50
2019-04-14T00:14:25.048Z,4.50
2019-04-14T00:16:55.258Z,4.40
2019-04-14T00:19:24.420Z,4.40
2019-04-14T00:21:54.427Z,4.40
2019-04-14T00:24:24.836Z,4.40
2019-04-14T00:26:55.218Z,4.10
2019-04-14T00:29:24.126Z,4.10
2019-04-14T00:31:54.161Z,4.00
2019-04-14T00:34:33.047Z,4.00
2019-04-14T00:37:14.135Z,3.90
2019-04-14T00:39:46.638Z,3.90
2019-04-14T00:42:25.665Z,4.00
2019-04-14T00:45:02.723Z,4.10
2019-04-14T00:47:43.262Z,4.10
2019-04-14T00:50:06.457Z,4.00
2019-04-14T00:52:35.299Z,4.00
2019-04-14T00:55:05.353Z,4.10
2019-04-14T00:57:34.166Z,4.00
2019-04-14T01:00:03.875Z,4.00
2019-04-14T01:02:33.985Z,4.00
2019-04-14T01:05:02.867Z,3.90
2019-04-14T01:07:32.636Z,3.90
2019-04-14T01:10:01.813Z,4.10
2019-04-14T01:12:32.007Z,4.10
2019-04-14T01:15:00.994Z,4.30
2019-04-14T01:17:30.817Z,4.30
2019-04-14T01:20:01.336Z,4.40
2019-04-14T01:22:31.371Z,4.20
2019-04-14T01:25:00.347Z,4.00
2019-04-14T01:27:29.914Z,3.80
2019-04-14T01:29:58.885Z,3.90
2019-04-14T01:32:28.400Z,4.10
2019-04-14T01:34:57.167Z,4.20
2019-04-14T01:37:26.822Z,4.20
2019-04-14T01:39:56.680Z,4.30
2019-04-14T01:42:26.759Z,4.40
2019-04-14T01:44:56.982Z,4.50
2019-04-14T01:47:27.023Z,4.60
2019-04-14T01:49:57.298Z,4.60
2019-04-14T01:52:36.262Z,4.50
2019-04-14T01:55:20.134Z,4.50
2019-04-14T01:58:08.058Z,4.60
2019-04-14T02:00:42.559Z,4.60
2019-04-14T02:03:12.660Z,4.70
2019-04-14T02:05:43.137Z,4.70
2019-04-14T02:08:13.092Z,4.60
2019-04-14T02:10:43.498Z,4.60
2019-04-14T02:13:13.529Z,4.50
2019-04-14T02:15:42.467Z,4.40
2019-04-14T02:18:12.143Z,4.30
2019-04-14T02:20:40.954Z,4.30
2019-04-14T02:23:10.346Z,4.30
2019-04-14T02:25:40.423Z,4.20
2019-04-14T02:28:09.587Z,4.10
2019-04-14T02:30:48.379Z,4.10
2019-04-14T02:33:38.969Z,4.10
2019-04-14T02:36:14.680Z,3.90
2019-04-14T02:38:41.197Z,3.60
2019-04-14T02:41:15.634Z,3.60
2019-04-14T02:43:45.349Z,3.60
2019-04-14T02:46:03.945Z,3.60
2019-04-14T02:48:44.551Z,3.50
2019-04-14T02:51:14.407Z,3.50
2019-04-14T02:53:42.108Z,3.50
2019-04-14T02:56:15.964Z,3.60
2019-04-14T03:01:14.649Z,3.50
2019-04-14T03:03:43.635Z,3.60
2019-04-14T03:06:14.568Z,3.60
2019-04-14T03:13:45.577Z,3.30
2019-04-14T03:19:13.938Z,3.20
2019-04-14T03:22:18.370Z,3.20
2019-04-14T03:24:37.510Z,3.10
2019-04-14T03:27:39.969Z,2.90
2019-04-14T03:30:39.287Z,2.80
2019-04-14T03:33:04.965Z,2.80
2019-04-14T03:38:03.168Z,2.80
2019-04-14T03:40:23.706Z,2.70
2019-04-14T03:42:59.654Z,2.80
2019-04-14T03:48:15.156Z,2.70
2019-04-14T03:50:21.114Z,2.80
2019-04-14T03:53:03.303Z,2.80
2019-04-14T03:55:11.349Z,2.90
2019-04-14T03:57:27.880Z,2.90
2019-04-14T03:59:56.381Z,2.90
2019-04-14T04:02:25.305Z,2.90
2019-04-14T04:04:54.086Z,2.90
2019-04-14T04:07:23.575Z,2.90
2019-04-14T04:09:58.267Z,2.90
2019-04-14T04:12:27.246Z,2.80
2019-04-14T04:14:57.423Z,2.80
2019-04-14T04:17:45.293Z,2.80
2019-04-14T04:20:32.845Z,2.80
2019-04-14T04:23:11.720Z,2.80
2019-04-14T04:25:48.999Z,2.80
2019-04-14T04:28:34.233Z,2.90
2019-04-14T04:31:11.066Z,2.90
2019-04-14T04:33:56.782Z,2.80
2019-04-14T04:36:31.281Z,2.80
2019-04-14T04:39:10.345Z,2.90
2019-04-14T04:41:39.159Z,2.90
2019-04-14T04:44:09.414Z,3.00
2019-04-14T04:46:39.448Z,2.90
2019-04-14T04:49:15.161Z,3.00
2019-04-14T04:51:40.027Z,3.00
2019-04-14T04:54:08.822Z,3.00
2019-04-14T04:56:38.349Z,3.10
2019-04-14T04:59:07.662Z,3.20
2019-04-14T05:01:36.719Z,3.30
2019-04-14T05:04:06.775Z,3.20
2019-04-14T05:07:10.654Z,3.20
2019-04-14T05:10:17.453Z,3.20
2019-04-14T05:13:05.770Z,3.20
2019-04-14T05:15:44.588Z,3.20
2019-04-14T05:18:27.308Z,3.20
2019-04-14T05:20:57.427Z,3.30
2019-04-14T05:23:26.351Z,3.30
2019-04-14T05:25:56.127Z,3.30
2019-04-14T05:28:25.161Z,3.30
2019-04-14T05:30:54.697Z,3.30
2019-04-14T05:33:24.943Z,3.30
2019-04-14T05:35:55.179Z,3.30
2019-04-14T05:38:24.375Z,3.40
2019-04-14T05:40:54.001Z,3.50
2019-04-14T05:43:30.210Z,3.70
2019-04-14T05:45:54.405Z,3.80
2019-04-14T05:48:23.375Z,3.90
2019-04-14T05:50:53.323Z,3.90
2019-04-14T05:53:22.296Z,3.80
2019-04-14T05:55:51.063Z,3.80
2019-04-14T05:58:20.747Z,3.80
2019-04-14T06:00:51.675Z,3.70
2019-04-14T06:03:21.319Z,3.70
2019-04-14T06:05:50.359Z,3.80
2019-04-14T06:08:19.462Z,3.90
2019-04-14T06:10:48.247Z,4.00
2019-04-14T06:13:17.026Z,4.10
2019-04-14T06:15:45.789Z,4.10
2019-04-14T06:18:14.641Z,4.10
2019-04-14T06:20:43.808Z,4.10
2019-04-14T06:23:12.563Z,4.20
2019-04-14T06:25:41.341Z,4.20
2019-04-14T06:28:10.179Z,4.20
2019-04-14T06:31:01.199Z,4.20
2019-04-14T06:33:38.516Z,4.30
2019-04-14T06:36:25.103Z,4.20
2019-04-14T06:38:59.990Z,4.20
2019-04-14T06:41:28.773Z,4.10
2019-04-14T06:43:57.555Z,4.00
2019-04-14T06:46:26.675Z,4.00
2019-04-14T06:48:55.446Z,4.00
2019-04-14T06:51:24.214Z,4.10
2019-04-14T06:53:53.012Z,4.10
2019-04-14T06:56:22.504Z,4.10
2019-04-14T06:58:51.590Z,4.10
2019-04-14T07:01:20.390Z,4.00
2019-04-14T07:03:49.170Z,3.80
2019-04-14T07:06:17.939Z,3.80
2019-04-14T07:08:46.997Z,3.80
2019-04-14T07:11:16.107Z,3.80
2019-04-14T07:13:48.006Z,3.80
2019-04-14T07:16:15.668Z,4.00
2019-04-14T07:18:44.435Z,4.00
2019-04-14T07:21:13.207Z,4.10
2019-04-14T07:23:42.236Z,4.10
2019-04-14T07:26:11.195Z,4.10
2019-04-14T07:28:39.971Z,4.10
2019-04-14T07:31:26.963Z,4.20
2019-04-14T07:34:21.874Z,4.20
2019-04-14T07:37:13.607Z,4.20
2019-04-14T07:39:51.714Z,4.30
2019-04-14T07:42:32.789Z,4.30
2019-04-14T07:45:36.187Z,4.30
2019-04-14T07:48:16.346Z,4.30
2019-04-14T07:51:00.390Z,4.20
2019-04-14T07:53:54.780Z,4.20
2019-04-14T07:56:42.923Z,4.20
2019-04-14T07:59:20.007Z,4.20
2019-04-14T08:02:02.079Z,4.20
2019-04-14T08:04:33.647Z,4.10
2019-04-14T08:07:02.446Z,4.20
2019-04-14T08:09:31.214Z,4.40
2019-04-14T08:11:59.983Z,4.40
2019-04-14T08:14:29.320Z,4.30
2019-04-14T08:16:58.412Z,4.30
2019-04-14T08:19:27.179Z,4.40
2019-04-14T08:21:56.300Z,4.20
2019-04-14T08:24:25.056Z,4.30
2019-04-14T08:26:54.490Z,4.50
2019-04-14T08:29:23.597Z,4.50
2019-04-14T08:31:52.359Z,4.60
2019-04-14T08:34:21.128Z,4.60
2019-04-14T08:36:49.992Z,4.40
2019-04-14T08:39:18.746Z,4.40
2019-04-14T08:42:07.293Z,4.40
2019-04-14T08:44:42.585Z,4.40
2019-04-14T08:47:35.687Z,4.40
2019-04-14T08:50:10.823Z,4.30
2019-04-14T08:52:47.401Z,4.30
2019-04-14T08:55:23.137Z,4.20
2019-04-14T08:57:56.330Z,4.30
2019-04-14T09:00:32.181Z,4.30
2019-04-14T09:03:19.104Z,4.30
2019-04-14T09:05:59.560Z,4.30
2019-04-14T09:08:59.955Z,4.40
2019-04-14T09:11:36.571Z,4.40
2019-04-14T09:14:05.519Z,4.50
2019-04-14T09:16:34.579Z,4.60
2019-04-14T09:19:07.800Z,4.60
2019-04-14T09:21:33.846Z,4.50
2019-04-14T09:24:03.272Z,4.50
2019-04-14T09:26:32.331Z,4.50
2019-04-14T09:29:01.359Z,4.60
2019-04-14T09:31:30.147Z,4.60
2019-04-14T09:33:58.908Z,4.70
2019-04-14T09:36:28.339Z,4.60
2019-04-14T09:38:57.422Z,4.50
2019-04-14T09:41:26.835Z,4.50
2019-04-14T09:43:55.600Z,4.60
2019-04-14T09:46:25.158Z,4.70
2019-04-14T09:48:54.536Z,4.60
2019-04-14T09:51:23.944Z,4.50
2019-04-14T09:53:53.564Z,4.60
2019-04-14T09:56:23.251Z,4.60
2019-04-14T09:58:52.371Z,4.70
2019-04-14T10:01:21.490Z,4.70
2019-04-14T10:03:50.740Z,4.70
2019-04-14T10:06:19.795Z,4.70
2019-04-14T10:08:48.654Z,4.80
2019-04-14T10:11:17.792Z,4.70
2019-04-14T10:13:47.132Z,4.80
2019-04-14T10:16:15.903Z,4.80
2019-04-14T10:18:44.675Z,4.70
2019-04-14T10:21:17.658Z,4.70
2019-04-14T10:23:43.939Z,4.70
2019-04-14T10:26:13.035Z,4.70
2019-04-14T10:28:42.109Z,4.70
2019-04-14T10:31:11.392Z,4.80
2019-04-14T10:33:40.784Z,4.80
2019-04-14T10:36:10.388Z,5.00
2019-04-14T10:38:39.511Z,5.00
2019-04-14T10:41:08.288Z,4.90
2019-04-14T10:43:37.067Z,4.80
2019-04-14T10:46:05.895Z,4.80
2019-04-14T10:48:34.683Z,4.80
2019-04-14T10:51:04.846Z,4.90
2019-04-14T10:53:33.912Z,5.00
2019-04-14T10:56:02.804Z,4.90
2019-04-14T10:58:32.153Z,5.00
2019-04-14T11:01:01.230Z,5.00
2019-04-14T11:03:30.075Z,5.00
2019-04-14T11:06:12.595Z,5.00
2019-04-14T11:08:41.367Z,4.90
2019-04-14T11:11:10.371Z,4.80
2019-04-14T11:13:40.083Z,4.90
2019-04-14T11:16:09.043Z,5.00
2019-04-14T11:18:38.070Z,5.00
2019-04-14T11:21:06.831Z,5.00
2019-04-14T11:23:36.409Z,5.10
2019-04-14T11:26:05.529Z,5.20
2019-04-14T11:28:35.009Z,5.10
2019-04-14T11:31:04.227Z,5.10
2019-04-14T11:33:36.461Z,5.00
2019-04-14T11:36:24.721Z,5.00
2019-04-14T11:39:18.696Z,5.10
2019-04-14T11:41:48.375Z,5.10
2019-04-14T11:44:17.546Z,5.10
2019-04-14T11:46:46.455Z,5.10
2019-04-14T11:49:15.651Z,5.10
2019-04-14T11:51:54.685Z,5.20
2019-04-14T11:54:15.348Z,5.20
2019-04-14T11:56:44.431Z,5.20
2019-04-14T11:59:13.696Z,5.10
2019-04-14T12:01:58.805Z,5.10
2019-04-14T12:04:41.016Z,5.10
2019-04-14T12:07:41.419Z,5.10
2019-04-14T12:10:18.340Z,5.10
2019-04-14T12:12:47.175Z,5.20
2019-04-14T12:15:16.659Z,5.30
2019-04-14T12:17:45.698Z,5.20
2019-04-14T12:20:15.089Z,5.20
2019-04-14T12:22:44.175Z,5.10
2019-04-14T12:25:13.018Z,5.10
2019-04-14T12:27:42.084Z,5.10
2019-04-14T12:30:13.388Z,5.00
2019-04-14T12:32:43.513Z,5.10
2019-04-14T12:35:13.124Z,5.00
2019-04-14T12:37:42.183Z,5.00
2019-04-14T12:40:12.052Z,5.10
2019-04-14T12:43:09.248Z,5.20
2019-04-14T12:45:51.478Z,5.10
2019-04-14T12:48:26.958Z,5.00
2019-04-14T12:50:59.932Z,4.90
2019-04-14T12:53:29.060Z,4.90
2019-04-14T12:55:58.440Z,4.90
2019-04-14T12:58:38.946Z,4.90
2019-04-14T13:01:10.414Z,5.00
2019-04-14T13:03:41.976Z,4.90
2019-04-14T13:06:11.367Z,4.90
2019-04-14T13:08:40.171Z,4.90
2019-04-14T13:11:09.801Z,5.10
2019-04-14T13:13:38.576Z,5.20
2019-04-14T13:16:07.685Z,5.10
2019-04-14T13:18:36.803Z,5.00
2019-04-14T13:21:05.846Z,5.00
2019-04-14T13:23:34.615Z,5.00
2019-04-14T13:26:03.381Z,5.00
2019-04-14T13:28:32.442Z,5.10
2019-04-14T13:31:01.391Z,5.10
2019-04-14T13:33:30.179Z,5.10
2019-04-14T13:35:59.428Z,5.10
2019-04-14T13:38:28.533Z,5.20
2019-04-14T13:40:57.288Z,5.20
2019-04-14T13:43:26.151Z,5.30
2019-04-14T13:45:54.921Z,5.20
2019-04-14T13:48:23.983Z,5.20
2019-04-14T13:50:53.136Z,5.30
2019-04-14T13:53:22.282Z,5.40
2019-04-14T13:55:51.579Z,5.40
2019-04-14T13:58:20.754Z,5.10
2019-04-14T14:00:49.867Z,5.00
2019-04-14T14:03:19.062Z,5.10
2019-04-14T14:05:48.471Z,5.00
2019-04-14T14:08:17.239Z,5.30
2019-04-14T14:10:46.019Z,5.40
2019-04-14T14:13:29.575Z,5.30
2019-04-14T14:16:16.519Z,5.10
2019-04-14T14:19:02.795Z,5.10
2019-04-14T14:21:57.176Z,5.00
2019-04-14T14:24:45.729Z,4.90
2019-04-14T14:27:14.604Z,4.90
2019-04-14T14:29:44.438Z,5.10
2019-04-14T14:32:27.715Z,5.00
2019-04-14T14:34:56.836Z,5.00
2019-04-14T14:37:26.163Z,5.00
2019-04-14T14:39:55.699Z,5.00
2019-04-14T14:42:24.857Z,5.00
2019-04-14T14:45:00.303Z,5.00
2019-04-14T14:47:30.571Z,5.00
2019-04-14T14:50:22.347Z,5.10
2019-04-14T14:52:51.124Z,5.30
2019-04-14T14:55:20.237Z,5.40
2019-04-14T14:57:49.087Z,5.40
2019-04-14T15:00:24.815Z,5.30
2019-04-14T15:02:53.874Z,5.20
2019-04-14T15:05:22.715Z,5.30
2019-04-14T15:07:52.067Z,5.20
2019-04-14T15:10:21.152Z,5.10
2019-04-14T15:12:50.556Z,5.10
2019-04-14T15:15:19.645Z,5.10
2019-04-14T15:17:49.052Z,5.20
2019-04-14T15:20:17.899Z,5.40
2019-04-14T15:22:46.667Z,5.50
2019-04-14T15:25:15.519Z,5.60
2019-04-14T15:27:44.855Z,5.70
2019-04-14T15:30:18.479Z,5.80
2019-04-14T15:32:47.290Z,5.70
2019-04-14T15:35:16.478Z,5.60
2019-04-14T15:37:45.931Z,5.70
2019-04-14T15:40:15.159Z,5.60
2019-04-14T15:42:44.539Z,5.60
2019-04-14T15:45:14.163Z,5.80
2019-04-14T15:47:43.424Z,5.80
2019-04-14T15:50:12.340Z,5.70
2019-04-14T15:52:41.110Z,5.80
2019-04-14T15:55:11.395Z,5.70
2019-04-14T15:57:50.553Z,5.60
2019-04-14T16:00:40.799Z,5.50
2019-04-14T16:03:19.515Z,5.50
2019-04-14T16:06:08.165Z,5.50
2019-04-14T16:08:47.232Z,5.60
2019-04-14T16:11:36.723Z,5.60
2019-04-14T16:14:20.864Z,5.60
2019-04-14T16:17:09.926Z,5.70
2019-04-14T16:19:46.593Z,5.90
2019-04-14T16:22:15.376Z,6.00
2019-04-14T16:24:44.390Z,6.10
2019-04-14T16:27:26.126Z,6.10
2019-04-14T16:30:06.906Z,6.10
2019-04-14T16:32:56.624Z,6.00
2019-04-14T16:35:27.870Z,5.90
2019-04-14T16:37:56.951Z,6.00
2019-04-14T16:40:26.066Z,6.00
2019-04-14T16:42:55.158Z,6.00
2019-04-14T16:45:24.214Z,6.00
2019-04-14T16:47:52.988Z,5.90
2019-04-14T16:50:21.758Z,6.00
2019-04-14T16:53:04.934Z,6.00
2019-04-14T16:55:43.258Z,6.00
2019-04-14T16:58:17.518Z,6.10
2019-04-14T17:00:50.585Z,6.20
2019-04-14T17:03:19.356Z,6.20
2019-04-14T17:05:48.135Z,6.40
2019-04-14T17:08:16.940Z,6.70
2019-04-14T17:10:46.334Z,6.90
2019-04-14T17:13:15.177Z,7.00
2019-04-14T17:16:05.679Z,7.10
2019-04-14T17:18:58.169Z,7.30
2019-04-14T17:21:38.139Z,7.30
2019-04-14T17:24:16.785Z,7.20
2019-04-14T17:26:54.745Z,7.10
2019-04-14T17:29:42.966Z,7.20
2019-04-14T17:32:34.299Z,7.30
2019-04-14T17:35:17.935Z,7.20
2019-04-14T17:37:51.943Z,6.80
2019-04-14T17:40:33.379Z,6.70
2019-04-14T17:43:15.631Z,6.40
2019-04-14T17:45:58.753Z,6.30
2019-04-14T17:48:48.223Z,6.20
2019-04-14T17:51:25.071Z,6.30
2019-04-14T17:54:13.048Z,6.40
2019-04-14T17:56:47.155Z,6.30
2019-04-14T17:59:42.683Z,6.20
2019-04-14T18:02:27.535Z,6.20
2019-04-14T18:05:21.399Z,6.30
2019-04-14T18:07:57.447Z,6.40
2019-04-14T18:10:41.311Z,6.30
2019-04-14T18:13:16.247Z,6.60
2019-04-14T18:16:16.316Z,6.70
2019-04-14T18:19:03.203Z,6.80
2019-04-14T18:21:32.355Z,6.90
2019-04-14T18:24:01.730Z,6.90
2019-04-14T18:26:30.571Z,7.00
2019-04-14T18:29:17.383Z,7.00
2019-04-14T18:31:51.459Z,7.20
2019-04-14T18:34:45.473Z,7.30
2019-04-14T18:37:38.223Z,7.40
2019-04-14T18:40:13.759Z,7.50
2019-04-14T18:42:58.116Z,7.70
2019-04-14T18:45:31.099Z,7.70
2019-04-14T18:48:08.089Z,7.80
2019-04-14T18:50:56.229Z,7.90
2019-04-14T18:53:35.256Z,8.00
2019-04-14T18:56:11.911Z,8.10
2019-04-14T18:58:50.334Z,8.10
2019-04-14T19:01:22.190Z,8.20
2019-04-14T19:03:50.975Z,8.20
2019-04-14T19:06:20.232Z,8.30
2019-04-14T19:08:50.838Z,8.30
2019-04-14T19:11:48.408Z,8.30
2019-04-14T19:14:24.507Z,8.30
2019-04-14T19:16:57.852Z,8.30
2019-04-14T19:19:26.667Z,8.30
2019-04-14T19:21:55.439Z,8.30
2019-04-14T19:24:24.615Z,8.30
2019-04-14T19:26:53.398Z,8.30
2019-04-14T19:29:22.176Z,8.30
2019-04-14T19:31:51.051Z,8.20
2019-04-14T19:34:20.478Z,8.30
2019-04-14T19:36:49.824Z,8.30
2019-04-14T19:39:18.677Z,8.30
2019-04-14T19:41:47.623Z,8.30
2019-04-14T19:44:16.407Z,8.30
2019-04-14T19:46:45.425Z,8.30
2019-04-14T19:49:14.221Z,8.30
2019-04-14T19:51:43.439Z,8.30
2019-04-14T19:54:12.251Z,8.20
2019-04-14T19:56:41.075Z,8.20
2019-04-14T22:06:55.329Z,8.20
2019-04-14T22:09:31.159Z,8.20
2019-04-14T22:12:01.564Z,8.10
2019-04-14T22:14:30.376Z,8.10
2019-04-14T22:16:59.198Z,8.10
2019-04-14T22:19:28.122Z,8.10
2019-04-14T22:21:56.880Z,8.20
2019-04-14T22:24:25.651Z,8.20
2019-04-14T22:26:54.423Z,8.10
2019-04-14T22:29:23.194Z,8.00
2019-04-14T22:31:52.335Z,7.90
2019-04-14T22:34:21.192Z,7.90
2019-04-14T22:36:49.946Z,7.90
2019-04-14T22:39:19.022Z,8.00
2019-04-14T22:41:48.397Z,8.00
2019-04-14T22:44:17.475Z,8.00
2019-04-14T22:46:46.247Z,8.00
2019-04-14T22:49:14.998Z,7.90
2019-04-14T22:51:44.079Z,7.90
2019-04-14T22:54:13.166Z,7.90
2019-04-14T22:56:41.935Z,7.80
2019-04-14T22:59:11.068Z,7.80
2019-04-14T23:01:42.718Z,7.80
2019-04-14T23:04:34.503Z,7.80
2019-04-14T23:07:13.502Z,7.70
2019-04-14T23:09:49.430Z,7.50
2019-04-14T23:12:35.792Z,7.50
2019-04-14T23:15:19.635Z,7.60
2019-04-14T23:18:06.194Z,7.60
2019-04-14T23:20:52.895Z,7.70
2019-04-14T23:23:40.907Z,7.70
2019-04-14T23:26:09.850Z,7.70
2019-04-14T23:28:38.911Z,7.70
2019-04-14T23:31:08.311Z,7.60
2019-04-14T23:33:37.087Z,7.60
2019-04-14T23:36:06.091Z,7.60
2019-04-14T23:38:35.381Z,7.60
2019-04-14T23:41:04.330Z,7.60
2019-04-14T23:43:33.383Z,7.60
2019-04-14T23:46:02.299Z,7.70
2019-04-14T23:48:31.366Z,7.70
2019-04-14T23:51:00.775Z,7.70
2019-04-14T23:53:30.383Z,7.70
2019-04-14T23:55:59.224Z,7.80
2019-04-14T23:58:28.052Z,7.80
